Time;durP1;ratioP1;P1;durP2;ratioP2;P2;SDS_P1;SDS_P2;PMS_P1;PMS_P2;Temp;Humidity;BMP_temperature;BMP_pressure;BME280_temperature;BME280_humidity;BME280_pressure;Samples;Min_cycle;Max_cycle;Signal;HPM_P1;HPM_P2
2023/06/26 00:01:58;;;;;;;0.60;0.60;;;19.80;99.90;;;;;;4398330;32;20169;-74
2023/06/26 00:04:23;;;;;;;1.55;1.00;;;19.90;99.90;;;;;;4400981;32;20105;-75
2023/06/26 00:06:49;;;;;;;1.40;0.80;;;20.00;99.90;;;;;;4401169;32;20445;-76
2023/06/26 00:09:14;;;;;;;2.83;0.98;;;20.00;99.90;;;;;;4405203;32;20605;-75
2023/06/26 00:11:40;;;;;;;1.75;0.98;;;19.90;99.90;;;;;;4405885;32;20227;-75
2023/06/26 00:14:06;;;;;;;0.80;0.80;;;19.80;99.90;;;;;;4402814;32;20122;-75
2023/06/26 00:16:31;;;;;;;1.83;0.80;;;19.70;99.90;;;;;;4401358;32;20089;-75
2023/06/26 00:18:58;;;;;;;1.58;0.82;;;19.60;99.90;;;;;;4400935;32;20252;-75
2023/06/26 00:21:25;;;;;;;3.30;0.77;;;19.60;99.90;;;;;;4401997;32;20102;-75
2023/06/26 00:23:50;;;;;;;0.60;0.60;;;19.70;99.90;;;;;;4402029;32;20102;-75
2023/06/26 00:26:16;;;;;;;0.95;0.70;;;19.70;99.90;;;;;;4401467;32;20090;-75
2023/06/26 00:28:42;;;;;;;1.27;0.82;;;19.70;99.90;;;;;;4404024;32;20137;-75
2023/06/26 00:31:07;;;;;;;0.82;0.75;;;19.60;99.90;;;;;;4403265;32;20107;-76
2023/06/26 00:33:33;;;;;;;0.77;0.65;;;19.60;99.90;;;;;;4403204;32;20479;-76
2023/06/26 00:35:59;;;;;;;2.75;0.93;;;19.70;99.90;;;;;;4401622;32;20062;-76
2023/06/26 00:38:24;;;;;;;0.73;0.70;;;19.70;99.90;;;;;;4403602;32;20114;-76
2023/06/26 00:40:50;;;;;;;0.57;0.57;;;19.70;99.90;;;;;;4402694;32;20189;-75
2023/06/26 00:43:15;;;;;;;0.60;0.47;;;19.70;99.90;;;;;;4402847;32;20093;-76
2023/06/26 00:45:41;;;;;;;0.47;0.47;;;19.60;99.90;;;;;;4401629;32;20629;-76
2023/06/26 00:48:11;;;;;;;0.98;0.93;;;19.60;99.90;;;;;;4403665;32;20073;-76
2023/06/26 00:50:37;;;;;;;0.50;0.50;;;19.60;99.90;;;;;;4401913;32;20909;-76
2023/06/26 00:53:03;;;;;;;2.50;0.85;;;19.70;99.90;;;;;;4405600;32;20093;-76
2023/06/26 00:55:29;;;;;;;0.98;0.93;;;19.60;99.90;;;;;;4405227;32;20090;-76
2023/06/26 00:57:56;;;;;;;1.83;0.95;;;19.70;99.90;;;;;;4403764;32;20641;-76
2023/06/26 01:00:23;;;;;;;0.88;0.80;;;19.70;99.90;;;;;;4403362;32;20093;-77
2023/06/26 01:02:49;;;;;;;0.70;0.70;;;19.70;99.90;;;;;;4405560;32;20065;-75
2023/06/26 01:05:20;;;;;;;1.15;1.02;;;19.60;99.90;;;;;;4402165;32;20075;-75
2023/06/26 01:07:46;;;;;;;;;;;19.60;99.90;;;;;;4405650;32;20466;-75
2023/06/26 01:10:12;;;;;;;1.10;1.00;;;19.50;99.90;;;;;;4402283;32;20339;-75
2023/06/26 01:12:38;;;;;;;1.02;0.70;;;19.50;99.90;;;;;;4402116;32;20069;-75
2023/06/26 01:15:04;;;;;;;1.15;0.90;;;19.50;99.90;;;;;;4400060;32;20169;-76
2023/06/26 01:17:31;;;;;;;1.00;0.90;;;19.50;99.90;;;;;;4400388;32;20070;-75
2023/06/26 01:19:58;;;;;;;2.78;0.93;;;19.40;99.90;;;;;;4401343;32;20628;-76
2023/06/26 01:22:51;;;;;;;1.67;1.05;;;19.30;99.90;;;;;;4401489;32;20455;-76
2023/06/26 01:25:57;;;;;;;1.60;0.90;;;19.40;99.90;;;;;;4390894;32;20453;-76
2023/06/26 01:28:24;;;;;;;0.60;0.60;;;19.20;99.90;;;;;;4382504;32;20085;-77
2023/06/26 01:30:51;;;;;;;0.80;0.80;;;19.10;99.90;;;;;;4401839;32;20078;-76
2023/06/26 01:33:17;;;;;;;5.82;0.80;;;19.20;99.90;;;;;;4402608;32;20078;-76
2023/06/26 01:35:42;;;;;;;15.43;2.70;;;19.20;99.90;;;;;;4401361;32;20705;-77
2023/06/26 01:38:15;;;;;;;1.00;0.80;;;19.20;99.90;;;;;;4403921;32;20070;-76
2023/06/26 01:40:41;;;;;;;2.28;0.98;;;19.30;99.90;;;;;;4401519;32;20069;-76
2023/06/26 01:43:15;;;;;;;0.98;0.77;;;19.30;99.90;;;;;;4402024;32;20140;-76
2023/06/26 01:45:41;;;;;;;0.65;0.65;;;19.30;99.90;;;;;;4399942;32;20110;-75
2023/06/26 01:48:09;;;;;;;0.80;0.80;;;19.30;99.90;;;;;;4401429;32;20416;-75
2023/06/26 01:50:37;;;;;;;1.45;0.85;;;19.30;99.90;;;;;;4402663;32;20077;-75
2023/06/26 01:53:12;;;;;;;0.60;0.60;;;19.20;99.90;;;;;;4403125;32;20545;-75
2023/06/26 01:56:02;;;;;;;0.70;0.70;;;19.20;99.90;;;;;;4403904;32;20077;-76
2023/06/26 01:58:28;;;;;;;0.75;0.75;;;19.20;99.90;;;;;;4389952;32;20090;-75
2023/06/26 02:01:00;;;;;;;1.35;0.93;;;19.30;99.90;;;;;;4402354;32;20150;-76
2023/06/26 02:03:26;;;;;;;1.87;0.73;;;19.10;99.90;;;;;;4402940;32;20066;-76
2023/06/26 02:05:52;;;;;;;1.33;0.80;;;19.10;99.90;;;;;;4403093;32;20793;-77
2023/06/26 02:08:17;;;;;;;1.58;0.98;;;19.10;99.90;;;;;;4404662;32;20136;-77
2023/06/26 02:10:43;;;;;;;0.70;0.70;;;19.10;99.90;;;;;;4403878;32;20086;-77
2023/06/26 02:13:08;;;;;;;0.80;0.80;;;19.10;99.90;;;;;;4403936;32;20077;-76
2023/06/26 02:15:34;;;;;;;4.00;1.48;;;19.20;99.90;;;;;;4402508;32;20520;-76
2023/06/26 02:17:59;;;;;;;0.85;0.77;;;19.30;99.90;;;;;;4404899;32;20078;-76
2023/06/26 02:20:25;;;;;;;1.20;0.90;;;19.20;99.90;;;;;;4400765;32;20084;-76
2023/06/26 02:22:50;;;;;;;1.37;0.77;;;19.20;99.90;;;;;;4400374;32;20090;-76
2023/06/26 02:25:17;;;;;;;1.30;0.90;;;19.20;99.90;;;;;;4401275;32;20170;-76
2023/06/26 02:27:42;;;;;;;0.98;0.90;;;19.10;99.90;;;;;;4402135;32;20156;-75
2023/06/26 02:30:09;;;;;;;0.55;0.55;;;19.10;99.90;;;;;;4401196;32;20573;-76
2023/06/26 02:32:35;;;;;;;4.37;1.20;;;19.10;99.90;;;;;;4403761;32;20554;-76
2023/06/26 02:35:01;;;;;;;1.70;1.45;;;19.10;99.90;;;;;;4401537;32;20132;-76
2023/06/26 02:37:26;;;;;;;0.82;0.73;;;19.10;99.90;;;;;;4402716;32;20089;-76
2023/06/26 02:39:52;;;;;;;1.12;0.95;;;19.10;99.90;;;;;;4400563;32;20089;-76
2023/06/26 02:42:17;;;;;;;0.55;0.50;;;19.00;99.90;;;;;;4401515;32;20496;-76
2023/06/26 02:44:43;;;;;;;0.85;0.82;;;18.90;99.90;;;;;;4403324;32;20102;-76
2023/06/26 02:47:08;;;;;;;2.40;0.60;;;18.90;99.90;;;;;;4401353;32;20552;-76
2023/06/26 02:49:34;;;;;;;1.33;1.20;;;19.00;99.90;;;;;;4402992;32;20109;-77
2023/06/26 02:51:59;;;;;;;1.52;0.82;;;19.00;99.90;;;;;;4400542;32;20794;-76
2023/06/26 02:54:25;;;;;;;0.98;0.88;;;19.00;99.90;;;;;;4402568;32;20086;-76
2023/06/26 02:56:51;;;;;;;1.67;1.08;;;19.00;99.90;;;;;;4401483;32;20125;-76
2023/06/26 02:59:17;;;;;;;0.82;0.82;;;19.10;99.90;;;;;;4402949;32;20152;-77
2023/06/26 03:01:44;;;;;;;2.90;1.17;;;19.10;99.90;;;;;;4402513;32;20151;-77
2023/06/26 03:04:10;;;;;;;1.60;0.98;;;19.10;99.90;;;;;;4399687;32;20078;-76
2023/06/26 03:06:36;;;;;;;1.00;0.80;;;19.10;99.90;;;;;;4402090;32;20124;-76
2023/06/26 03:09:02;;;;;;;4.15;0.88;;;19.00;99.90;;;;;;4402931;32;20140;-76
2023/06/26 03:11:27;;;;;;;5.25;1.08;;;19.00;99.90;;;;;;4402790;32;20091;-76
2023/06/26 03:13:53;;;;;;;0.55;0.55;;;19.00;99.90;;;;;;4400570;32;20114;-77
2023/06/26 03:16:18;;;;;;;0.80;0.80;;;19.00;99.90;;;;;;4401729;32;20062;-76
2023/06/26 03:18:44;;;;;;;1.65;0.95;;;19.00;99.90;;;;;;4399821;32;20148;-76
2023/06/26 03:21:10;;;;;;;2.60;1.02;;;19.00;99.90;;;;;;4399569;32;20443;-76
2023/06/26 03:23:36;;;;;;;0.85;0.85;;;19.00;99.90;;;;;;4400025;32;20537;-76
2023/06/26 03:26:01;;;;;;;1.95;1.33;;;19.00;99.90;;;;;;4400745;32;20140;-76
2023/06/26 03:28:27;;;;;;;1.60;0.80;;;19.10;99.90;;;;;;4400835;32;20552;-76
2023/06/26 03:30:52;;;;;;;1.00;0.95;;;19.10;99.90;;;;;;4402841;32;20094;-76
2023/06/26 03:33:18;;;;;;;1.00;0.95;;;19.10;99.90;;;;;;4400358;32;20089;-76
2023/06/26 03:35:43;;;;;;;1.55;0.75;;;19.20;99.90;;;;;;4402973;32;20073;-75
2023/06/26 03:38:09;;;;;;;0.85;0.85;;;19.20;99.90;;;;;;4401390;32;20089;-74
2023/06/26 03:40:35;;;;;;;1.00;0.80;;;19.20;99.90;;;;;;4399705;32;20062;-74
2023/06/26 03:43:02;;;;;;;1.65;1.52;;;19.20;99.90;;;;;;4401846;32;20085;-76
2023/06/26 03:45:27;;;;;;;3.22;0.95;;;19.40;99.90;;;;;;4399900;32;20649;-77
2023/06/26 03:47:53;;;;;;;1.73;0.90;;;19.40;99.90;;;;;;4402414;32;20069;-75
2023/06/26 03:50:19;;;;;;;0.70;0.70;;;19.40;99.90;;;;;;4388967;32;20483;-75
2023/06/26 03:52:47;;;;;;;0.60;0.60;;;19.30;99.90;;;;;;4398077;32;20094;-75
2023/06/26 03:55:12;;;;;;;1.58;1.17;;;19.40;99.90;;;;;;4397904;32;20097;-75
2023/06/26 03:57:38;;;;;;;0.88;0.85;;;19.30;99.90;;;;;;4402374;32;20061;-75
2023/06/26 04:00:08;;;;;;;1.15;0.82;;;19.40;99.90;;;;;;4401686;32;20105;-77
2023/06/26 04:02:34;;;;;;;0.50;0.50;;;19.50;99.90;;;;;;4401651;32;20161;-78
2023/06/26 04:05:00;;;;;;;1.37;1.00;;;19.70;99.90;;;;;;4397481;32;20085;-75
2023/06/26 04:07:26;;;;;;;1.25;1.10;;;19.70;99.90;;;;;;4400311;32;20070;-76
2023/06/26 04:09:51;;;;;;;0.70;0.70;;;19.60;99.90;;;;;;4399758;32;20082;-75
2023/06/26 04:12:17;;;;;;;2.03;1.20;;;19.60;99.90;;;;;;4401010;32;20058;-75
2023/06/26 04:14:42;;;;;;;1.77;1.00;;;19.60;99.90;;;;;;4400084;32;20065;-77
2023/06/26 04:17:08;;;;;;;1.52;1.23;;;19.60;99.90;;;;;;4396804;32;20487;-76
2023/06/26 04:19:35;;;;;;;0.98;0.98;;;19.70;99.90;;;;;;4399164;32;20082;-76
2023/06/26 04:22:02;;;;;;;1.73;0.88;;;19.70;99.90;;;;;;4395921;32;20511;-77
2023/06/26 04:24:28;;;;;;;0.70;0.70;;;19.60;99.90;;;;;;4400855;32;20081;-77
2023/06/26 04:26:56;;;;;;;0.85;0.85;;;19.70;99.90;;;;;;4399738;32;20094;-76
2023/06/26 04:29:25;;;;;;;1.12;1.02;;;19.70;99.90;;;;;;4400149;32;20122;-76
2023/06/26 04:31:51;;;;;;;1.73;1.25;;;19.70;99.90;;;;;;4401186;32;20509;-75
2023/06/26 04:34:16;;;;;;;1.15;1.05;;;19.70;99.90;;;;;;4401648;32;20153;-75
2023/06/26 04:36:46;;;;;;;0.82;0.80;;;19.70;99.90;;;;;;4401616;32;20066;-75
2023/06/26 04:39:11;;;;;;;0.75;0.75;;;19.70;99.90;;;;;;4400382;32;20574;-76
2023/06/26 04:41:37;;;;;;;1.75;1.20;;;19.70;99.90;;;;;;4398207;32;20391;-76
2023/06/26 04:44:03;;;;;;;2.92;1.00;;;19.70;99.90;;;;;;4400472;32;20066;-76
2023/06/26 04:46:28;;;;;;;1.30;0.93;;;19.70;99.90;;;;;;4400697;32;20086;-76
2023/06/26 04:48:54;;;;;;;0.70;0.70;;;19.70;99.90;;;;;;4400779;32;20468;-76
2023/06/26 04:51:20;;;;;;;0.60;0.60;;;19.70;99.90;;;;;;4400313;32;20102;-76
2023/06/26 04:53:46;;;;;;;1.02;0.88;;;19.80;99.90;;;;;;4402682;32;20069;-76
2023/06/26 04:56:11;;;;;;;1.35;1.05;;;19.90;99.90;;;;;;4403637;32;20435;-76
2023/06/26 04:58:37;;;;;;;0.80;0.80;;;20.00;99.90;;;;;;4403638;32;20153;-76
2023/06/26 05:01:06;;;;;;;1.40;0.82;;;20.10;99.90;;;;;;4399807;32;20151;-76
2023/06/26 05:03:32;;;;;;;1.08;0.93;;;20.30;99.90;;;;;;4401526;32;20086;-76
2023/06/26 05:05:57;;;;;;;1.10;0.90;;;20.30;99.90;;;;;;4400835;32;20202;-76
2023/06/26 05:08:26;;;;;;;1.25;0.82;;;20.50;99.90;;;;;;4400893;32;20066;-76
2023/06/26 05:10:53;;;;;;;3.33;1.02;;;20.60;99.90;;;;;;4399103;32;20074;-76
2023/06/26 05:13:19;;;;;;;2.15;0.98;;;20.60;99.90;;;;;;4401129;32;20885;-76
2023/06/26 05:15:46;;;;;;;1.20;1.10;;;20.70;99.90;;;;;;4399680;32;21493;-74
2023/06/26 05:18:12;;;;;;;1.15;0.90;;;20.70;99.90;;;;;;4392265;32;20156;-78
2023/06/26 05:20:38;;;;;;;0.70;0.70;;;20.60;99.90;;;;;;4400235;32;20093;-75
2023/06/26 05:23:04;;;;;;;0.40;0.40;;;20.60;99.90;;;;;;4402088;32;20074;-75
2023/06/26 05:25:32;;;;;;;3.80;1.33;;;20.50;99.90;;;;;;4398391;32;20109;-75
2023/06/26 05:27:58;;;;;;;3.40;0.98;;;20.50;99.90;;;;;;4388613;32;20117;-76
2023/06/26 05:30:26;;;;;;;0.60;0.60;;;20.50;99.90;;;;;;4384701;32;20160;-76
2023/06/26 05:32:53;;;;;;;0.55;0.55;;;20.40;99.90;;;;;;4385202;32;20332;-75
2023/06/26 05:35:24;;;;;;;2.20;1.37;;;20.40;99.90;;;;;;4399783;32;20078;-77
2023/06/26 05:37:51;;;;;;;1.42;1.05;;;20.50;99.90;;;;;;4398661;32;21439;-78
2023/06/26 05:40:29;;;;;;;1.45;0.90;;;20.50;99.90;;;;;;4399829;32;20093;-79
2023/06/26 05:42:55;;;;;;;1.40;0.80;;;20.40;99.90;;;;;;4397881;32;20103;-77
2023/06/26 05:45:21;;;;;;;1.37;0.88;;;20.40;99.90;;;;;;4395443;32;20094;-77
2023/06/26 05:47:50;;;;;;;1.33;0.80;;;20.60;99.90;;;;;;4397128;32;20198;-77
2023/06/26 05:50:17;;;;;;;1.12;0.80;;;20.70;99.90;;;;;;4399786;32;20089;-77
2023/06/26 05:52:43;;;;;;;0.70;0.70;;;20.80;99.90;;;;;;4403474;32;20189;-77
2023/06/26 05:55:10;;;;;;;2.05;0.47;;;20.90;99.90;;;;;;4400602;32;20086;-77
2023/06/26 05:57:37;;;;;;;0.60;0.60;;;21.00;99.90;;;;;;4398740;32;20121;-76
2023/06/26 06:00:05;;;;;;;1.17;0.88;;;21.10;99.90;;;;;;4397550;32;20070;-78
2023/06/26 06:02:32;;;;;;;1.00;0.80;;;21.20;99.90;;;;;;4394862;32;20110;-77
2023/06/26 06:04:57;;;;;;;0.55;0.55;;;21.30;99.90;;;;;;4386200;32;20659;-77
2023/06/26 06:07:23;;;;;;;0.95;0.93;;;21.30;99.90;;;;;;4390864;32;20109;-77
2023/06/26 06:09:48;;;;;;;2.30;0.70;;;21.40;99.90;;;;;;4393115;32;20176;-77
2023/06/26 06:12:15;;;;;;;0.50;0.50;;;21.50;99.90;;;;;;4389560;32;20089;-77
2023/06/26 06:14:40;;;;;;;1.50;0.77;;;21.70;99.90;;;;;;4392021;32;20487;-77
2023/06/26 06:17:06;;;;;;;1.23;0.88;;;21.70;99.90;;;;;;4395499;32;20086;-77
2023/06/26 06:19:31;;;;;;;0.52;0.52;;;21.80;99.90;;;;;;4387469;32;20061;-75
2023/06/26 06:21:57;;;;;;;0.82;0.80;;;21.80;99.90;;;;;;4383798;32;20111;-77
2023/06/26 06:24:22;;;;;;;0.65;0.65;;;21.90;99.90;;;;;;4393195;32;20102;-77
2023/06/26 06:26:48;;;;;;;1.95;0.70;;;22.00;99.90;;;;;;4388443;32;20139;-77
2023/06/26 06:29:18;;;;;;;0.55;0.55;;;22.10;99.90;;;;;;4376751;32;20094;-77
2023/06/26 06:31:44;;;;;;;0.50;0.50;;;22.20;99.90;;;;;;4378755;32;21176;-77
2023/06/26 06:34:09;;;;;;;0.68;0.65;;;22.20;99.90;;;;;;4383973;32;20702;-76
2023/06/26 06:36:35;;;;;;;1.55;1.20;;;22.30;99.90;;;;;;4380667;32;21151;-77
2023/06/26 06:39:00;;;;;;;0.90;0.73;;;22.40;99.90;;;;;;4385172;32;20573;-77
2023/06/26 06:41:26;;;;;;;0.50;0.50;;;22.50;99.90;;;;;;4382419;32;20086;-77
2023/06/26 06:43:51;;;;;;;1.35;0.90;;;22.60;99.90;;;;;;4382462;32;20395;-76
2023/06/26 06:46:17;;;;;;;0.60;0.60;;;22.70;99.90;;;;;;4394490;32;20183;-77
2023/06/26 06:48:46;;;;;;;0.50;0.50;;;22.80;99.90;;;;;;4390084;32;20347;-77
2023/06/26 06:51:11;;;;;;;0.40;0.40;;;22.80;99.90;;;;;;4388469;32;20186;-77
2023/06/26 06:53:37;;;;;;;0.40;0.40;;;22.90;99.90;;;;;;4384907;32;20066;-77
2023/06/26 06:56:03;;;;;;;0.60;0.47;;;22.90;99.90;;;;;;4390706;32;20105;-77
2023/06/26 06:58:28;;;;;;;0.75;0.50;;;23.00;99.90;;;;;;4381239;32;20188;-77
2023/06/26 07:00:54;;;;;;;1.40;0.77;;;23.10;99.90;;;;;;4380151;32;21134;-77
2023/06/26 07:03:21;;;;;;;2.83;0.93;;;23.10;99.90;;;;;;4377507;32;20106;-77
2023/06/26 07:05:47;;;;;;;0.40;0.40;;;23.20;99.90;;;;;;4386123;32;20752;-77
2023/06/26 07:08:14;;;;;;;0.35;0.35;;;23.30;99.90;;;;;;4380686;32;20555;-77
2023/06/26 07:10:39;;;;;;;0.90;0.77;;;23.30;99.90;;;;;;4386710;32;20144;-76
2023/06/26 07:13:05;;;;;;;0.77;0.60;;;23.40;99.90;;;;;;4386575;32;20466;-76
2023/06/26 07:15:31;;;;;;;0.70;0.45;;;23.50;99.90;;;;;;4386265;32;20089;-77
2023/06/26 07:17:56;;;;;;;0.20;0.20;;;23.60;99.90;;;;;;4386585;32;20545;-77
2023/06/26 07:20:22;;;;;;;0.20;0.20;;;23.70;99.90;;;;;;4383761;32;20106;-77
2023/06/26 07:22:48;;;;;;;4.93;0.50;;;23.80;99.90;;;;;;4388186;32;20070;-76
2023/06/26 07:25:15;;;;;;;0.40;0.40;;;23.90;99.90;;;;;;4387814;32;20098;-78
2023/06/26 07:27:41;;;;;;;0.77;0.47;;;24.00;99.90;;;;;;4384497;32;20676;-77
2023/06/26 07:30:09;;;;;;;0.88;0.70;;;24.10;99.90;;;;;;4383325;32;20102;-78
2023/06/26 07:32:36;;;;;;;0.50;0.50;;;24.10;99.90;;;;;;4382610;32;20351;-78
2023/06/26 07:35:02;;;;;;;1.35;0.65;;;24.10;99.90;;;;;;4389723;32;20156;-77
2023/06/26 07:37:28;;;;;;;1.02;0.75;;;24.20;99.90;;;;;;4399208;32;20062;-77
2023/06/26 07:39:53;;;;;;;2.00;0.62;;;24.30;99.90;;;;;;4401245;32;20085;-75
2023/06/26 07:42:19;;;;;;;1.25;0.88;;;24.60;99.90;;;;;;4399759;32;20089;-75
2023/06/26 07:44:50;;;;;;;0.70;0.65;;;24.70;99.90;;;;;;4399155;32;20101;-79
2023/06/26 07:47:16;;;;;;;0.62;0.62;;;24.70;99.90;;;;;;4402871;32;20065;-77
2023/06/26 07:49:41;;;;;;;0.55;0.55;;;24.90;99.90;;;;;;4398597;32;20200;-78
2023/06/26 07:52:10;;;;;;;0.65;0.65;;;24.90;99.90;;;;;;4389709;32;20098;-77
2023/06/26 07:54:37;;;;;;;0.37;0.37;;;24.90;99.90;;;;;;4382151;32;20817;-76
2023/06/26 07:57:06;;;;;;;0.57;0.50;;;25.00;99.90;;;;;;4380757;32;20089;-79
2023/06/26 07:59:32;;;;;;;0.35;0.35;;;25.20;99.90;;;;;;4391764;32;20160;-77
2023/06/26 08:01:59;;;;;;;0.52;0.52;;;25.30;99.90;;;;;;4391648;32;20106;-80
2023/06/26 08:04:26;;;;;;;0.80;0.43;;;25.50;99.90;;;;;;4396691;32;20122;-75
2023/06/26 08:06:55;;;;;;;0.35;0.35;;;25.60;99.90;;;;;;4389444;32;20131;-77
2023/06/26 08:09:24;;;;;;;0.45;0.40;;;25.70;99.90;;;;;;4397114;32;21321;-76
2023/06/26 08:11:50;;;;;;;0.30;0.30;;;25.80;99.90;;;;;;4396782;32;20091;-77
2023/06/26 08:14:16;;;;;;;0.52;0.47;;;25.80;99.90;;;;;;4390178;32;20089;-76
2023/06/26 08:16:43;;;;;;;0.70;0.50;;;25.80;99.90;;;;;;4389298;32;20085;-77
2023/06/26 08:19:10;;;;;;;0.35;0.35;;;25.90;99.90;;;;;;4390147;32;20090;-75
2023/06/26 08:21:35;;;;;;;0.32;0.32;;;26.00;99.90;;;;;;4388806;32;20114;-78
2023/06/26 08:24:01;;;;;;;0.25;0.25;;;26.20;99.90;;;;;;4388762;32;20065;-79
2023/06/26 08:26:28;;;;;;;1.37;0.60;;;26.40;99.90;;;;;;4397047;32;20085;-76
2023/06/26 08:28:55;;;;;;;0.30;0.30;;;26.40;99.90;;;;;;4391421;32;20161;-78
2023/06/26 08:31:20;;;;;;;0.57;0.55;;;26.40;99.90;;;;;;4396417;32;20098;-76
2023/06/26 08:33:47;;;;;;;0.50;0.50;;;26.40;99.90;;;;;;4389054;32;20145;-78
2023/06/26 08:36:13;;;;;;;0.25;0.25;;;26.60;99.90;;;;;;4390370;32;20089;-79
2023/06/26 08:38:40;;;;;;;0.80;0.65;;;26.60;99.90;;;;;;4392040;32;20534;-76
2023/06/26 08:41:07;;;;;;;0.25;0.25;;;26.70;99.90;;;;;;4387596;32;20538;-75
2023/06/26 08:43:34;;;;;;;0.60;0.55;;;26.80;99.90;;;;;;4389829;32;20326;-75
2023/06/26 08:46:00;;;;;;;0.17;0.17;;;26.90;99.90;;;;;;4388525;32;20560;-75
2023/06/26 08:48:31;;;;;;;0.28;0.28;;;26.90;99.90;;;;;;4391987;32;20106;-76
2023/06/26 08:50:58;;;;;;;0.65;0.40;;;26.90;99.90;;;;;;4389168;32;20464;-76
2023/06/26 08:54:00;;;;;;;2.83;0.50;;;27.00;99.90;;;;;;4392756;32;20795;-76
2023/06/26 08:56:36;;;;;;;0.20;0.20;;;27.10;99.90;;;;;;4379844;32;20081;-77
2023/06/26 08:59:01;;;;;;;0.30;0.30;;;27.20;99.90;;;;;;4388992;32;20113;-77
2023/06/26 09:01:27;;;;;;;0.30;0.30;;;27.30;99.90;;;;;;4388138;32;20423;-76
2023/06/26 09:03:53;;;;;;;0.37;0.28;;;27.40;99.90;;;;;;4390107;32;20140;-77
2023/06/26 09:06:21;;;;;;;0.30;0.30;;;27.60;99.90;;;;;;4391096;32;20173;-75
2023/06/26 09:08:46;;;;;;;0.30;0.30;;;27.70;99.90;;;;;;4391688;32;20085;-76
2023/06/26 09:11:12;;;;;;;0.70;0.20;;;27.60;99.90;;;;;;4391904;32;20140;-76
2023/06/26 09:13:39;;;;;;;0.73;0.30;;;27.60;99.90;;;;;;4393656;32;20074;-77
2023/06/26 09:16:07;;;;;;;0.13;0.13;;;27.60;99.90;;;;;;4393008;32;20089;-77
2023/06/26 09:18:33;;;;;;;0.22;0.22;;;27.70;99.90;;;;;;4395305;32;20102;-76
2023/06/26 09:20:59;;;;;;;0.20;0.20;;;27.80;99.90;;;;;;4396731;32;20781;-76
2023/06/26 09:23:26;;;;;;;0.22;0.22;;;27.90;99.90;;;;;;4387506;32;20510;-76
2023/06/26 09:25:52;;;;;;;0.40;0.40;;;27.90;99.90;;;;;;4384542;32;20299;-76
2023/06/26 09:28:17;;;;;;;0.25;0.25;;;28.00;99.90;;;;;;4374972;32;21538;-77
2023/06/26 09:30:46;;;;;;;0.43;0.32;;;28.00;99.00;;;;;;4378473;32;20085;-77
2023/06/26 09:33:16;;;;;;;0.17;0.17;;;28.00;99.50;;;;;;4373834;32;20115;-75
2023/06/26 09:35:43;;;;;;;0.20;0.20;;;28.00;99.90;;;;;;4384015;32;20107;-78
2023/06/26 09:38:12;;;;;;;0.47;0.25;;;28.10;99.70;;;;;;4382578;32;20094;-77
2023/06/26 09:40:38;;;;;;;0.30;0.30;;;28.00;99.90;;;;;;4379942;32;21620;-77
2023/06/26 09:43:06;;;;;;;0.20;0.20;;;28.10;99.60;;;;;;4389339;32;21137;-77
2023/06/26 09:45:33;;;;;;;0.20;0.20;;;28.30;99.90;;;;;;4393809;32;20132;-77
2023/06/26 09:48:02;;;;;;;0.40;0.40;;;28.40;99.90;;;;;;4392496;32;21250;-75
2023/06/26 09:50:28;;;;;;;0.40;0.40;;;28.50;99.70;;;;;;4390224;32;20106;-76
2023/06/26 09:52:55;;;;;;;0.60;0.32;;;28.70;99.90;;;;;;4390498;32;20752;-76
2023/06/26 09:55:22;;;;;;;0.10;0.10;;;28.70;98.20;;;;;;4394293;32;20077;-75
2023/06/26 09:57:51;;;;;;;0.10;0.10;;;28.80;98.30;;;;;;4387589;32;20098;-77
2023/06/26 10:00:18;;;;;;;0.22;0.22;;;29.00;98.30;;;;;;4391011;32;20137;-75
2023/06/26 10:02:44;;;;;;;0.10;0.10;;;28.70;96.60;;;;;;4391099;32;20114;-76
2023/06/26 10:05:12;;;;;;;1.20;0.30;;;28.80;96.60;;;;;;4395642;32;20085;-75
2023/06/26 10:07:39;;;;;;;0.28;0.28;;;29.00;97.70;;;;;;4388276;32;20101;-75
2023/06/26 10:10:07;;;;;;;0.10;0.10;;;29.20;97.30;;;;;;4394557;32;20102;-76
2023/06/26 10:12:34;;;;;;;0.32;0.30;;;29.00;96.30;;;;;;4395518;32;20073;-76
2023/06/26 10:15:03;;;;;;;0.10;0.10;;;29.20;96.80;;;;;;4389647;32;20094;-74
2023/06/26 10:17:32;;;;;;;0.37;0.30;;;29.60;97.90;;;;;;4393295;32;20471;-74
2023/06/26 10:20:02;;;;;;;0.15;0.15;;;29.80;96.60;;;;;;4395344;32;20550;-76
2023/06/26 10:22:31;;;;;;;0.17;0.17;;;29.90;96.60;;;;;;4392198;32;20106;-75
2023/06/26 10:24:59;;;;;;;1.35;0.47;;;30.10;95.00;;;;;;4391439;32;20074;-75
2023/06/26 10:27:29;;;;;;;0.20;0.20;;;30.20;95.70;;;;;;4396949;32;20499;-77
2023/06/26 10:29:57;;;;;;;0.10;0.10;;;30.30;94.70;;;;;;4392419;32;20592;-75
2023/06/26 10:32:25;;;;;;;0.28;0.28;;;30.30;95.00;;;;;;4372402;32;20703;-76
2023/06/26 10:34:51;;;;;;;0.98;0.62;;;30.50;94.20;;;;;;4393532;32;20735;-75
2023/06/26 10:37:17;;;;;;;0.85;0.37;;;30.70;95.20;;;;;;4402018;32;20494;-76
2023/06/26 10:39:49;;;;;;;0.32;0.30;;;30.50;93.10;;;;;;4393915;32;20098;-77
2023/06/26 10:42:16;;;;;;;0.30;0.30;;;30.50;93.40;;;;;;4401451;32;20117;-76
2023/06/26 10:44:43;;;;;;;0.62;0.47;;;30.90;93.30;;;;;;4400632;32;20534;-75
2023/06/26 10:47:09;;;;;;;0.20;0.20;;;31.00;93.20;;;;;;4405058;32;20082;-75
2023/06/26 10:49:36;;;;;;;0.20;0.20;;;31.20;93.70;;;;;;4397932;32;20536;-76
2023/06/26 10:52:02;;;;;;;0.37;0.32;;;31.10;92.10;;;;;;4396222;32;20517;-79
2023/06/26 10:54:32;;;;;;;0.22;0.22;;;31.00;92.90;;;;;;4391186;32;20326;-76
2023/06/26 10:56:58;;;;;;;0.35;0.30;;;31.00;91.60;;;;;;4380380;32;20101;-77
2023/06/26 10:59:26;;;;;;;0.30;0.30;;;31.10;92.40;;;;;;4367732;32;20093;-78
2023/06/26 11:01:58;;;;;;;0.22;0.22;;;31.60;92.20;;;;;;4388941;32;20127;-77
2023/06/26 11:04:44;;;;;;;0.20;0.20;;;31.60;90.90;;;;;;4387449;32;20554;-77
2023/06/26 11:07:27;;;;;;;0.20;0.20;;;31.70;91.70;;;;;;4372584;32;20120;-76
2023/06/26 11:10:09;;;;;;;1.10;0.60;;;31.90;91.30;;;;;;4388272;32;20110;-76
2023/06/26 11:12:41;;;;;;;0.47;0.45;;;32.00;90.20;;;;;;4372591;32;20570;-76
2023/06/26 11:15:11;;;;;;;0.17;0.15;;;31.90;90.60;;;;;;4385998;32;20101;-75
2023/06/26 11:17:43;;;;;;;0.20;0.20;;;31.60;89.30;;;;;;4372303;32;20193;-77
2023/06/26 11:20:12;;;;;;;1.58;1.00;;;31.80;88.50;;;;;;4395916;32;20093;-78
2023/06/26 11:22:40;;;;;;;0.30;0.30;;;32.10;89.50;;;;;;4390970;32;20085;-77
2023/06/26 11:25:07;;;;;;;0.40;0.40;;;32.50;88.20;;;;;;4407588;32;20077;-77
2023/06/26 11:27:43;;;;;;;0.30;0.30;;;32.60;86.10;;;;;;4408540;32;20093;-78
2023/06/26 11:30:11;;;;;;;0.50;0.50;;;32.70;85.40;;;;;;4398144;32;20117;-77
2023/06/26 11:32:38;;;;;;;0.40;0.40;;;32.90;85.90;;;;;;4387549;32;20144;-76
2023/06/26 11:35:04;;;;;;;0.88;0.73;;;33.20;83.50;;;;;;4384768;32;20098;-77
2023/06/26 11:37:31;;;;;;;0.47;0.35;;;33.20;85.30;;;;;;4386589;32;20319;-77
2023/06/26 11:39:57;;;;;;;0.20;0.20;;;33.70;82.20;;;;;;4400166;32;20123;-76
2023/06/26 11:42:25;;;;;;;0.17;0.17;;;33.70;81.30;;;;;;4405124;32;20077;-78
2023/06/26 11:44:52;;;;;;;0.35;0.35;;;33.50;83.90;;;;;;4397207;32;20204;-77
2023/06/26 11:47:19;;;;;;;1.20;0.55;;;33.90;82.20;;;;;;4379496;32;168622;-77
2023/06/26 11:49:46;;;;;;;0.22;0.22;;;34.20;80.00;;;;;;4396395;32;22111;-76
2023/06/26 11:52:12;;;;;;;0.35;0.35;;;34.20;79.40;;;;;;4395194;32;20086;-79
2023/06/26 11:54:38;;;;;;;0.20;0.20;;;34.40;78.10;;;;;;4390639;27;20498;-67
2023/06/26 11:57:04;;;;;;;0.73;0.37;;;34.50;77.00;;;;;;4368807;32;20102;-67
2023/06/26 11:59:35;;;;;;;0.32;0.32;;;34.50;78.70;;;;;;4369567;32;20473;-67
2023/06/26 12:02:06;;;;;;;0.43;0.43;;;34.70;80.90;;;;;;4358870;32;20360;-66
2023/06/26 12:04:33;;;;;;;0.20;0.20;;;35.00;77.00;;;;;;4367462;32;21037;-66
2023/06/26 12:06:59;;;;;;;0.17;0.17;;;34.90;76.90;;;;;;4363247;32;20115;-66
2023/06/26 12:09:26;;;;;;;0.20;0.20;;;35.20;77.50;;;;;;4376056;32;20130;-67
2023/06/26 12:11:54;;;;;;;0.43;0.40;;;35.90;74.00;;;;;;4370044;32;20090;-67
2023/06/26 12:14:22;;;;;;;0.30;0.30;;;36.20;74.50;;;;;;4378581;32;21399;-67
2023/06/26 12:16:48;;;;;;;0.43;0.35;;;36.20;74.20;;;;;;4372602;32;20094;-66
2023/06/26 12:19:14;;;;;;;0.20;0.20;;;36.20;73.80;;;;;;4363833;32;20821;-67
2023/06/26 12:21:44;;;;;;;0.30;0.30;;;35.90;74.00;;;;;;4368102;32;20090;-66
2023/06/26 12:24:14;;;;;;;0.73;0.30;;;35.60;74.00;;;;;;4370440;32;20299;-66
2023/06/26 12:26:43;;;;;;;2.30;0.75;;;35.70;75.70;;;;;;4365499;32;20160;-66
2023/06/26 12:29:11;;;;;;;0.30;0.30;;;35.90;75.50;;;;;;4364519;32;20130;-66
2023/06/26 12:31:41;;;;;;;0.30;0.30;;;36.20;73.60;;;;;;4361613;32;20086;-67
2023/06/26 12:34:12;;;;;;;0.20;0.20;;;36.60;72.90;;;;;;4372283;32;20114;-66
2023/06/26 12:36:42;;;;;;;0.30;0.30;;;36.90;70.30;;;;;;4369108;32;20224;-66
2023/06/26 12:39:10;;;;;;;0.50;0.50;;;37.10;72.40;;;;;;4377970;32;20101;-66
2023/06/26 12:41:44;;;;;;;0.30;0.30;;;37.00;71.50;;;;;;4373576;32;20075;-67
2023/06/26 12:44:27;;;;;;;0.50;0.40;;;37.20;72.50;;;;;;4377404;32;20116;-67
2023/06/26 12:46:57;;;;;;;0.30;0.30;;;37.30;68.20;;;;;;4387038;32;20142;-67
2023/06/26 12:49:39;;;;;;;0.20;0.20;;;37.50;68.70;;;;;;4374659;32;20479;-66